TimeMST,TemperatureF,Dew PointF,Humidity,Sea Level PressureIn,VisibilityMPH,Wind Direction,Wind SpeedMPH,Gust SpeedMPH,PrecipitationIn,Events,Conditions,WindDirDegrees,DateUTC
12:51 AM,57.2,26.6,31,30.00,10.0,SSW,4.6,-,N/A,,Clear,200,2012-10-08 07:51:00
1:51 AM,55.9,28.0,34,29.82,10.0,South,4.6,-,N/A,,Clear,190,2012-10-08 08:51:00
2:51 AM,55.0,28.9,37,29.81,10.0,SE,3.5,-,N/A,,Clear,140,2012-10-08 09:51:00
3:51 AM,53.1,28.0,38,29.82,10.0,ESE,3.5,-,N/A,,Clear,120,2012-10-08 10:51:00
4:51 AM,55.9,34.0,44,29.81,10.0,SSE,4.6,-,N/A,,Clear,160,2012-10-08 11:51:00
5:51 AM,54.0,35.1,49,29.83,10.0,Calm,Calm,-,N/A,,Clear,0,2012-10-08 12:51:00
6:51 AM,54.0,35.1,49,29.86,10.0,SE,5.8,-,N/A,,Clear,140,2012-10-08 13:51:00
7:51 AM,66.0,37.9,36,29.86,10.0,Calm,Calm,-,N/A,,Clear,0,2012-10-08 14:51:00
8:51 AM,73.0,36.0,26,29.87,10.0,Calm,Calm,-,N/A,,Clear,0,2012-10-08 15:51:00
9:51 AM,79.0,39.0,24,29.86,10.0,SSW,10.4,-,N/A,,Clear,210,2012-10-08 16:51:00
10:51 AM,80.1,39.0,23,29.84,10.0,SSW,12.7,26.5,N/A,,Clear,210,2012-10-08 17:51:00
11:51 AM,82.0,39.0,22,29.83,10.0,SW,13.8,20.7,N/A,,Clear,220,2012-10-08 18:51:00
12:51 PM,84.0,39.0,20,29.81,10.0,SW,18.4,26.5,N/A,,Clear,230,2012-10-08 19:51:00
1:51 PM,82.9,33.1,17,29.79,10.0,SW,16.1,26.5,N/A,,Clear,230,2012-10-08 20:51:00
2:51 PM,82.9,35.1,18,29.79,10.0,SSW,19.6,-,N/A,,Clear,200,2012-10-08 21:51:00
3:51 PM,82.9,35.1,18,29.78,10.0,SW,17.3,25.3,N/A,,Clear,230,2012-10-08 22:51:00
4:51 PM,80.6,33.8,18,29.96,10.0,SW,16.1,20.7,N/A,,Clear,220,2012-10-08 23:51:00
5:51 PM,78.1,35.1,21,29.79,10.0,SW,11.5,-,N/A,,Clear,220,2012-10-09 00:51:00
6:51 PM,73.0,37.0,27,29.81,10.0,SSW,6.9,-,N/A,,Clear,210,2012-10-09 01:51:00
7:51 PM,68.0,36.0,31,29.81,10.0,South,8.1,-,N/A,,Clear,170,2012-10-09 02:51:00
8:51 PM,66.9,37.0,33,29.81,10.0,South,9.2,-,N/A,,Clear,180,2012-10-09 03:51:00
9:51 PM,66.9,36.0,32,29.81,10.0,South,9.2,-,N/A,,Clear,170,2012-10-09 04:51:00
10:51 PM,63.0,36.0,37,29.82,10.0,South,9.2,-,N/A,,Clear,180,2012-10-09 05:51:00
11:51 PM,66.0,39.9,38,29.81,10.0,South,9.2,-,N/A,,Clear,170,2012-10-09 06:51:00